Madison, AL (35756)

9:54 PM CDT on August 28, 2016 (GMT -0500)
Universal Lighting Technologies | | Change Station

Elev 610 ft 34.61 °N, 86.76 °W | Updated 10 seconds ago

Partly Cloudy
Partly Cloudy
76.4 °F
Feels Like 78 °F
N
0.0
Wind Variable Wind from ESE

Today
High -- | Low -- °F
--% Chance of Precip.
Yesterday
High -- | Low -- °F
Precip. -- in
Pressure 30.07 in
Visibility 10.0 miles
Clouds Few 20000 ft
Heat Index 78 °F
Dew Point 68 °F
Humidity 75%
Rainfall 0.00 in
Snow Depth Not available.
6:17 AM 7:18 PM
Waning Crescent, 11% visible
METAR KHSV 290153Z 06006KT 10SM FEW200 26/20 A3010 RMK AO2 SLP182 T02610200 $
Pressure 30.07 in
Visibility 10.0 miles
Clouds Few 20000 ft
Heat Index 78 °F
Dew Point 68 °F
Humidity 75%
Rainfall 0.00 in
Snow Depth Not available.
6:17 AM 7:18 PM
Waning Crescent, 11% visible
METAR KHSV 290153Z 06006KT 10SM FEW200 26/20 A3010 RMK AO2 SLP182 T02610200 $
The area of storminess, previously known as Invest 99-L that we were monitoring for days, finally developed into Tropical Depression Nine near the Florida Keys on Sunday evening.

There remains a large degree of uncertainty around how much this system will strengthen once it gets into the southeast Gulf of Mexico. For now, the clockwise flow around upper-level high pressure over the eastern United States will steer Tropical Depression Nine west-northwest toward the Gulf. That high will weaken by Tuesday, allowing this system to move more north, and then eventually northeast the next several days on a path toward the Florida Gulf Coast.

10-Day Weather Forecast

Almanac

Astronomy

Aug. 28, 2016 Rise Set
Actual Time
Civil Twilight
Nautical Twilight
Astronomical Twilight
Moon
Length of Visible Light
Length of Day
Tomorrow will be .
, % of the Moon is Illuminated

Today's Extremes

State Highs State Lows

Community

WunderPhotos

Upload Photos

1,935,780 photos uploaded!

WunderBlog® & News

Nearby

Air Quality

  Air Quality AQ Index Pollutant
Not available.

Snow Depth

Station Depth Elevation

Earthquake Activity

City Distance Mag. Time & Date
Minimum magnitude displayed is 2.5.

Coastal Water Temperatures

Place Temperature

Stations

Nearby Weather Stations

Station Location Temp. Windchill Dew Point Humidity Wind Precip. Elev Updated Type
                   

Watches & Warnings

There are currently no watches in effect.